Time;durP1;ratioP1;P1;durP2;ratioP2;P2;SDS_P1;SDS_P2;PMS_P1;PMS_P2;Temp;Humidity;BMP_temperature;BMP_pressure;BME280_temperature;BME280_humidity;BME280_pressure;Samples;Min_cycle;Max_cycle;Signal;HPM_P1;HPM_P2
2023/03/14 00:00:53;;;;;;;41.80;5.30;;;;;;;;;;5012415;28;20041;-71
2023/03/14 00:03:18;;;;;;;36.33;5.82;;;;;;;;;;5021465;28;20498;-70
2023/03/14 00:05:44;;;;;;;41.95;5.70;;;;;;;;;;5018115;28;20037;-70
2023/03/14 00:08:09;;;;;;;39.97;5.53;;;;;;;;;;5013101;28;20030;-71
2023/03/14 00:10:35;;;;;;;34.42;5.97;;;;;;;;;;5002443;28;20812;-71
2023/03/14 00:13:00;;;;;;;39.63;5.72;;;;;;;;;;5004641;28;20026;-69
2023/03/14 00:15:26;;;;;;;40.35;6.10;;;;;;;;;;5002287;28;20053;-71
2023/03/14 00:17:51;;;;;;;48.22;7.30;;;;;;;;;;5002171;28;20064;-71
2023/03/14 00:20:16;;;;;;;49.47;7.60;;;;;;;;;;5004848;28;20046;-72
2023/03/14 00:22:41;;;;;;;40.50;6.38;;;;;;;;;;5005000;28;20144;-70
2023/03/14 00:25:10;;;;;;;52.67;6.82;;;;;;;;;;5020573;28;20541;-71
2023/03/14 00:27:36;;;;;;;44.63;6.43;;;;;;;;;;5017767;28;20038;-72
2023/03/14 00:30:01;;;;;;;41.05;5.75;;;;;;;;;;5019435;28;20144;-71
2023/03/14 00:32:26;;;;;;;39.72;6.47;;;;;;;;;;5000295;28;20045;-71
2023/03/14 00:34:52;;;;;;;40.38;5.43;;;;;;;;;;5003341;28;20026;-72
2023/03/14 00:37:17;;;;;;;32.05;5.35;;;;;;;;;;5005146;28;20053;-71
2023/03/14 00:39:43;;;;;;;36.00;6.25;;;;;;;;;;5017653;28;20065;-71
2023/03/14 00:42:08;;;;;;;47.70;6.03;;;;;;;;;;5011832;28;20037;-71
2023/03/14 00:44:34;;;;;;;34.28;5.25;;;;;;;;;;5009176;28;20430;-71
2023/03/14 00:46:59;;;;;;;34.88;4.53;;;;;;;;;;5011483;28;20045;-71
2023/03/14 00:49:25;;;;;;;32.95;5.50;;;;;;;;;;5020452;28;20121;-71
2023/03/14 00:51:52;;;;;;;33.08;4.90;;;;;;;;;;5010730;28;20069;-72
2023/03/14 00:54:18;;;;;;;39.42;5.38;;;;;;;;;;5003984;28;20065;-71
2023/03/14 00:56:44;;;;;;;33.35;6.05;;;;;;;;;;5009553;28;20042;-71
2023/03/14 00:59:09;;;;;;;33.10;5.60;;;;;;;;;;5002658;28;20038;-70
2023/03/14 01:01:34;;;;;;;48.70;6.38;;;;;;;;;;5000983;28;20033;-71
2023/03/14 01:04:00;;;;;;;41.80;6.15;;;;;;;;;;5018464;28;20045;-71
2023/03/14 01:06:26;;;;;;;41.33;6.07;;;;;;;;;;5007973;28;20553;-71
2023/03/14 01:08:52;;;;;;;35.95;5.45;;;;;;;;;;5016332;28;20037;-71
2023/03/14 01:11:22;;;;;;;32.30;4.90;;;;;;;;;;5022287;28;20037;-71
2023/03/14 01:13:49;;;;;;;41.63;7.03;;;;;;;;;;5015916;28;20113;-70
2023/03/14 01:16:15;;;;;;;39.53;5.65;;;;;;;;;;5006006;28;20106;-72
2023/03/14 01:18:41;;;;;;;39.47;5.85;;;;;;;;;;5002849;28;21879;-69
2023/03/14 01:21:11;;;;;;;38.80;5.72;;;;;;;;;;5021096;28;20033;-71
2023/03/14 01:23:36;;;;;;;40.85;5.65;;;;;;;;;;5004734;28;20038;-71
2023/03/14 01:26:01;;;;;;;49.42;6.13;;;;;;;;;;5000238;28;20826;-72
2023/03/14 01:28:27;;;;;;;41.90;5.82;;;;;;;;;;4985342;28;20131;-70
2023/03/14 01:30:54;;;;;;;44.63;7.22;;;;;;;;;;4992346;28;20066;-71
2023/03/14 01:33:19;;;;;;;41.85;7.13;;;;;;;;;;5002358;28;20034;-70
2023/03/14 01:35:45;;;;;;;44.17;5.93;;;;;;;;;;5033979;28;20100;-70
2023/03/14 01:38:13;;;;;;;49.47;7.65;;;;;;;;;;5000411;28;20099;-71
2023/03/14 01:40:41;;;;;;;51.83;8.23;;;;;;;;;;5013928;28;20037;-71
2023/03/14 01:43:13;;;;;;;50.78;7.63;;;;;;;;;;5018169;28;20044;-71
2023/03/14 01:45:58;;;;;;;50.20;8.93;;;;;;;;;;5050136;28;20037;-70
2023/03/14 01:48:24;;;;;;;45.92;7.78;;;;;;;;;;5001857;28;20033;-71
2023/03/14 01:50:49;;;;;;;47.85;6.22;;;;;;;;;;5000483;28;20045;-71
2023/03/14 01:53:15;;;;;;;57.13;8.57;;;;;;;;;;4996986;28;20034;-71
2023/03/14 01:55:42;;;;;;;52.30;7.32;;;;;;;;;;4981724;28;20491;-71
2023/03/14 01:58:08;;;;;;;54.38;6.90;;;;;;;;;;4979762;28;20118;-72
2023/03/14 02:00:35;;;;;;;52.85;7.47;;;;;;;;;;4985325;28;20057;-72
2023/03/14 02:03:11;;;;;;;48.28;7.85;;;;;;;;;;4997541;28;20137;-71
2023/03/14 02:05:38;;;;;;;66.32;9.32;;;;;;;;;;5011842;28;20045;-72
2023/03/14 02:08:05;;;;;;;56.85;8.00;;;;;;;;;;5018067;28;20041;-71
2023/03/14 02:10:32;;;;;;;51.20;7.18;;;;;;;;;;5001190;28;20037;-70
2023/03/14 02:12:59;;;;;;;52.13;7.22;;;;;;;;;;5005168;28;20040;-70
2023/03/14 02:15:28;;;;;;;59.70;7.57;;;;;;;;;;5000001;28;20116;-71
2023/03/14 02:17:55;;;;;;;61.08;7.50;;;;;;;;;;5001757;28;20120;-71
2023/03/14 02:20:39;;;;;;;46.17;6.72;;;;;;;;;;5008399;28;20109;-71
2023/03/14 02:23:04;;;;;;;52.72;8.40;;;;;;;;;;5000890;28;20141;-70
2023/03/14 02:25:37;;;;;;;48.63;6.55;;;;;;;;;;5012006;28;20718;-71
2023/03/14 02:28:02;;;;;;;47.00;6.20;;;;;;;;;;5012129;28;20041;-70
2023/03/14 02:30:29;;;;;;;38.83;6.28;;;;;;;;;;4997190;28;20042;-70
2023/03/14 02:32:59;;;;;;;41.65;6.20;;;;;;;;;;4990125;28;20038;-69
2023/03/14 02:35:29;;;;;;;48.90;7.57;;;;;;;;;;4980112;28;20038;-70
2023/03/14 02:38:00;;;;;;;47.95;7.45;;;;;;;;;;5000625;28;20624;-71
2023/03/14 02:40:25;;;;;;;43.20;6.93;;;;;;;;;;5015195;28;20447;-70
2023/03/14 02:42:52;;;;;;;37.63;6.18;;;;;;;;;;5004422;28;20040;-71
2023/03/14 02:45:18;;;;;;;47.60;6.80;;;;;;;;;;5016500;28;20645;-70
2023/03/14 02:47:50;;;;;;;43.38;6.05;;;;;;;;;;5018277;28;20060;-71
2023/03/14 02:50:22;;;;;;;47.55;6.35;;;;;;;;;;5052048;28;20036;-70
2023/03/14 02:52:47;;;;;;;49.35;6.32;;;;;;;;;;5004697;28;20606;-71
2023/03/14 02:55:13;;;;;;;45.58;6.88;;;;;;;;;;5018353;28;20034;-70
2023/03/14 02:57:38;;;;;;;46.17;6.10;;;;;;;;;;4996487;28;20030;-70
2023/03/14 03:00:04;;;;;;;37.92;6.50;;;;;;;;;;4980756;28;20063;-69
2023/03/14 03:02:30;;;;;;;49.38;7.65;;;;;;;;;;4980499;28;20058;-71
2023/03/14 03:04:55;;;;;;;37.95;6.72;;;;;;;;;;5005198;28;20057;-71
2023/03/14 03:07:21;;;;;;;44.92;6.43;;;;;;;;;;5015186;28;20088;-69
2023/03/14 03:09:48;;;;;;;41.22;6.55;;;;;;;;;;5013160;28;20034;-70
2023/03/14 03:12:14;;;;;;;37.63;5.75;;;;;;;;;;4982849;28;20043;-70
2023/03/14 03:14:41;;;;;;;38.03;5.90;;;;;;;;;;4981105;28;20045;-70
2023/03/14 03:17:06;;;;;;;37.83;5.15;;;;;;;;;;4981147;28;20113;-71
2023/03/14 03:19:33;;;;;;;41.78;5.68;;;;;;;;;;4991178;28;20129;-71
2023/03/14 03:21:58;;;;;;;38.70;5.43;;;;;;;;;;5001396;28;20044;-71
2023/03/14 03:24:24;;;;;;;37.17;5.85;;;;;;;;;;5010306;28;20121;-72
2023/03/14 03:26:49;;;;;;;32.60;5.70;;;;;;;;;;5002447;28;20045;-71
2023/03/14 03:29:15;;;;;;;33.17;5.43;;;;;;;;;;5011423;28;20127;-69
2023/03/14 03:31:45;;;;;;;35.80;5.30;;;;;;;;;;5019380;28;20052;-70
2023/03/14 03:34:10;;;;;;;35.92;5.57;;;;;;;;;;5007722;28;20494;-70
2023/03/14 03:36:35;;;;;;;31.73;5.35;;;;;;;;;;5008828;28;20099;-72
2023/03/14 03:39:03;;;;;;;39.15;5.78;;;;;;;;;;5017477;28;20049;-69
2023/03/14 03:41:28;;;;;;;38.72;5.85;;;;;;;;;;5024367;28;20613;-70
2023/03/14 03:43:54;;;;;;;36.78;6.75;;;;;;;;;;5002533;28;20088;-70
2023/03/14 03:46:19;;;;;;;37.85;6.05;;;;;;;;;;5011793;28;20072;-69
2023/03/14 03:48:44;;;;;;;37.92;6.10;;;;;;;;;;5005524;28;20490;-69
2023/03/14 03:51:14;;;;;;;31.60;5.13;;;;;;;;;;5004466;28;20049;-67
2023/03/14 03:53:42;;;;;;;38.70;6.35;;;;;;;;;;5000253;28;20037;-68
2023/03/14 03:56:08;;;;;;;41.13;6.97;;;;;;;;;;4986615;28;20042;-68
2023/03/14 03:58:33;;;;;;;33.40;6.30;;;;;;;;;;4984021;28;20061;-68
2023/03/14 04:01:01;;;;;;;40.92;6.32;;;;;;;;;;4985609;28;20080;-69
2023/03/14 04:03:26;;;;;;;45.67;7.25;;;;;;;;;;4990555;28;20045;-69
2023/03/14 04:06:02;;;;;;;41.45;6.80;;;;;;;;;;5014112;28;20156;-69
2023/03/14 04:08:27;;;;;;;50.40;7.30;;;;;;;;;;5015619;28;20033;-69
2023/03/14 04:10:57;;;;;;;46.70;7.88;;;;;;;;;;5014791;28;20041;-70
2023/03/14 04:13:24;;;;;;;;;;;;;;;;;;5001415;28;20176;-69
2023/03/14 04:15:50;;;;;;;48.10;7.78;;;;;;;;;;5001224;28;20003;-69
2023/03/14 04:18:15;;;;;;;53.17;8.50;;;;;;;;;;5019572;28;20053;-69
2023/03/14 04:20:40;;;;;;;50.72;8.23;;;;;;;;;;5016794;28;20034;-69
2023/03/14 04:23:06;;;;;;;51.55;8.32;;;;;;;;;;5012665;28;20045;-70
2023/03/14 04:25:31;;;;;;;57.45;9.38;;;;;;;;;;5042247;28;20128;-70
2023/03/14 04:27:56;;;;;;;65.22;9.55;;;;;;;;;;5003684;28;20735;-69
2023/03/14 04:30:24;;;;;;;56.95;9.32;;;;;;;;;;5012709;28;20660;-69
2023/03/14 04:32:49;;;;;;;64.07;9.10;;;;;;;;;;5006966;28;20148;-69
2023/03/14 04:35:14;;;;;;;72.20;10.30;;;;;;;;;;5022888;28;20113;-70
2023/03/14 04:37:41;;;;;;;78.55;12.32;;;;;;;;;;5017548;28;20486;-72
2023/03/14 04:40:09;;;;;;;80.90;11.05;;;;;;;;;;5022957;28;20072;-70
2023/03/14 04:42:35;;;;;;;74.28;10.38;;;;;;;;;;5012588;28;20113;-70
2023/03/14 04:45:00;;;;;;;72.22;9.95;;;;;;;;;;5013829;28;20049;-69
2023/03/14 04:47:25;;;;;;;77.15;11.30;;;;;;;;;;5019582;28;20040;-71
2023/03/14 04:49:51;;;;;;;67.68;9.85;;;;;;;;;;5002872;28;20452;-69
2023/03/14 04:52:16;;;;;;;59.53;9.82;;;;;;;;;;5003325;28;20049;-69
2023/03/14 04:54:41;;;;;;;64.78;9.07;;;;;;;;;;5034693;28;20522;-69
2023/03/14 04:57:06;;;;;;;71.38;10.18;;;;;;;;;;5003112;28;20038;-69
2023/03/14 04:59:32;;;;;;;60.78;9.88;;;;;;;;;;5002179;28;20100;-70
2023/03/14 05:01:57;;;;;;;64.22;10.13;;;;;;;;;;5001687;28;20049;-70
2023/03/14 05:04:25;;;;;;;63.33;10.30;;;;;;;;;;5019382;28;20088;-69
2023/03/14 05:06:50;;;;;;;74.75;8.52;;;;;;;;;;4985016;28;20081;-70
2023/03/14 05:09:18;;;;;;;53.42;6.78;;;;;;;;;;5000223;28;20077;-70
2023/03/14 05:11:43;;;;;;;45.00;5.40;;;;;;;;;;5000237;28;20070;-70
2023/03/14 05:14:08;;;;;;;46.13;5.28;;;;;;;;;;5005641;28;20041;-71
2023/03/14 05:16:33;;;;;;;33.63;3.85;;;;;;;;;;5004349;28;20494;-70
2023/03/14 05:19:01;;;;;;;39.25;4.97;;;;;;;;;;5002171;28;20054;-72
2023/03/14 05:21:28;;;;;;;46.13;5.13;;;;;;;;;;5011930;28;20519;-68
2023/03/14 05:23:56;;;;;;;44.58;4.93;;;;;;;;;;4985193;28;20038;-70
2023/03/14 05:26:21;;;;;;;39.33;5.88;;;;;;;;;;5007189;28;20042;-70
2023/03/14 05:28:46;;;;;;;50.72;5.35;;;;;;;;;;5003812;28;20040;-69
2023/03/14 05:31:12;;;;;;;39.42;4.97;;;;;;;;;;5016668;28;20117;-69
2023/03/14 05:33:39;;;;;;;45.40;5.85;;;;;;;;;;4999996;28;20038;-68
2023/03/14 05:36:05;;;;;;;42.20;4.85;;;;;;;;;;5016521;28;20403;-68
2023/03/14 05:38:30;;;;;;;39.20;4.07;;;;;;;;;;5009193;28;20049;-69
2023/03/14 05:40:58;;;;;;;48.22;5.45;;;;;;;;;;5037273;28;20145;-70
2023/03/14 05:43:23;;;;;;;29.30;3.70;;;;;;;;;;5011892;28;20060;-68
2023/03/14 05:45:48;;;;;;;33.05;3.72;;;;;;;;;;5010155;28;20042;-68
2023/03/14 05:48:14;;;;;;;35.45;3.75;;;;;;;;;;5010233;28;20037;-69
2023/03/14 05:50:39;;;;;;;31.50;3.42;;;;;;;;;;5025939;28;20116;-68
2023/03/14 05:53:04;;;;;;;39.35;4.32;;;;;;;;;;5011162;28;20066;-69
2023/03/14 05:55:32;;;;;;;39.08;3.45;;;;;;;;;;5044688;28;20041;-69
2023/03/14 05:57:57;;;;;;;28.23;3.45;;;;;;;;;;4999324;28;20040;-69
2023/03/14 06:00:22;;;;;;;38.67;3.42;;;;;;;;;;4997249;28;20050;-69
2023/03/14 06:02:48;;;;;;;34.63;4.47;;;;;;;;;;5000890;28;20037;-69
2023/03/14 06:05:13;;;;;;;36.08;3.70;;;;;;;;;;4984948;28;20122;-69
2023/03/14 06:07:38;;;;;;;19.63;2.90;;;;;;;;;;5002500;28;20056;-68
2023/03/14 06:10:04;;;;;;;40.33;4.88;;;;;;;;;;5007192;28;20037;-69
2023/03/14 06:12:31;;;;;;;36.95;5.10;;;;;;;;;;5016355;28;20075;-68
2023/03/14 06:14:59;;;;;;;19.67;3.13;;;;;;;;;;5010692;28;20035;-67
2023/03/14 06:17:27;;;;;;;22.65;3.25;;;;;;;;;;5001173;28;20037;-66
2023/03/14 06:19:54;;;;;;;24.80;3.28;;;;;;;;;;5031708;28;20096;-66
2023/03/14 06:22:20;;;;;;;21.65;2.60;;;;;;;;;;5001254;28;20034;-67
2023/03/14 06:24:45;;;;;;;27.65;4.10;;;;;;;;;;5009251;28;20095;-67
2023/03/14 06:27:10;;;;;;;28.63;2.75;;;;;;;;;;5011507;28;20033;-67
2023/03/14 06:29:35;;;;;;;25.35;3.08;;;;;;;;;;5005224;28;20128;-67
2023/03/14 06:32:01;;;;;;;26.65;2.95;;;;;;;;;;4985978;28;20106;-66
2023/03/14 06:34:26;;;;;;;32.25;3.40;;;;;;;;;;5016035;28;20069;-68
2023/03/14 06:36:51;;;;;;;30.92;3.42;;;;;;;;;;5007324;28;20421;-67
2023/03/14 06:39:17;;;;;;;32.80;3.42;;;;;;;;;;5012904;28;20060;-68
2023/03/14 06:41:45;;;;;;;36.97;4.95;;;;;;;;;;5005128;28;20319;-68
2023/03/14 06:44:10;;;;;;;37.03;5.60;;;;;;;;;;5007600;28;20037;-68
2023/03/14 06:46:35;;;;;;;46.90;5.00;;;;;;;;;;5010758;28;20142;-67
2023/03/14 06:49:03;;;;;;;44.75;4.80;;;;;;;;;;5006120;28;20991;-68
2023/03/14 06:51:28;;;;;;;39.30;4.25;;;;;;;;;;5014642;28;20033;-68
2023/03/14 06:53:53;;;;;;;31.30;4.72;;;;;;;;;;5018116;28;20037;-69
2023/03/14 06:56:21;;;;;;;38.33;4.10;;;;;;;;;;5016873;28;20052;-67
2023/03/14 06:58:49;;;;;;;44.72;4.82;;;;;;;;;;5000259;28;20076;-66
2023/03/14 07:01:19;;;;;;;31.40;4.90;;;;;;;;;;5000236;28;20632;-69
2023/03/14 07:03:46;;;;;;;35.70;3.80;;;;;;;;;;5013086;28;20041;-67
2023/03/14 07:06:14;;;;;;;40.47;5.05;;;;;;;;;;5013022;28;20044;-67
2023/03/14 07:08:39;;;;;;;35.85;4.78;;;;;;;;;;5019653;28;20042;-69
2023/03/14 07:11:05;;;;;;;35.00;4.85;;;;;;;;;;5017387;28;20116;-68
2023/03/14 07:13:30;;;;;;;44.03;6.07;;;;;;;;;;5004989;28;20034;-69
2023/03/14 07:15:57;;;;;;;34.08;3.70;;;;;;;;;;5019600;28;20037;-68
2023/03/14 07:18:23;;;;;;;27.30;3.67;;;;;;;;;;5008793;28;20088;-68
2023/03/14 07:20:48;;;;;;;29.10;4.70;;;;;;;;;;5002107;28;20030;-67
2023/03/14 07:23:15;;;;;;;27.95;3.70;;;;;;;;;;5012580;28;20036;-69
2023/03/14 07:25:41;;;;;;;19.70;3.80;;;;;;;;;;5018377;28;20403;-68
2023/03/14 07:28:09;;;;;;;18.63;2.40;;;;;;;;;;5015621;28;20095;-70
2023/03/14 07:30:36;;;;;;;14.57;1.92;;;;;;;;;;5018453;28;20040;-69
2023/03/14 07:33:04;;;;;;;14.25;2.08;;;;;;;;;;4999892;28;20029;-68
2023/03/14 07:35:31;;;;;;;17.88;1.92;;;;;;;;;;5019663;28;20505;-68
2023/03/14 07:37:56;;;;;;;17.17;2.38;;;;;;;;;;5014719;28;20057;-69
2023/03/14 07:40:26;;;;;;;15.18;2.40;;;;;;;;;;5011002;28;20037;-68
2023/03/14 07:42:54;;;;;;;23.73;3.13;;;;;;;;;;5018767;28;20513;-69
2023/03/14 07:45:20;;;;;;;24.83;3.13;;;;;;;;;;5007212;28;20060;-67
2023/03/14 07:47:45;;;;;;;40.45;3.80;;;;;;;;;;5031369;28;20041;-68
2023/03/14 07:50:10;;;;;;;31.70;4.13;;;;;;;;;;5011458;28;20048;-70
2023/03/14 07:52:36;;;;;;;32.25;3.60;;;;;;;;;;5014478;28;20790;-69
2023/03/14 07:55:01;;;;;;;27.63;3.55;;;;;;;;;;5036718;28;20037;-69
2023/03/14 07:57:26;;;;;;;31.13;4.03;;;;;;;;;;5018203;28;20038;-68
2023/03/14 07:59:51;;;;;;;31.23;4.50;;;;;;;;;;5020960;28;20514;-69
2023/03/14 08:02:22;;;;;;;34.50;4.65;;;;;;;;;;5021034;28;21781;-69
2023/03/14 08:04:47;;;;;;;38.42;4.70;;;;;;;;;;5013983;28;20547;-69
2023/03/14 08:07:15;;;;;;;33.30;4.28;;;;;;;;;;5045272;28;20117;-68
2023/03/14 08:09:40;;;;;;;26.27;4.45;;;;;;;;;;5022333;28;20653;-69
2023/03/14 08:12:06;;;;;;;25.33;3.50;;;;;;;;;;5012795;28;20099;-68
2023/03/14 08:14:31;;;;;;;32.88;3.92;;;;;;;;;;5013116;28;20041;-68
2023/03/14 08:16:56;;;;;;;40.97;5.00;;;;;;;;;;5020727;28;20091;-67
2023/03/14 08:19:24;;;;;;;39.65;4.90;;;;;;;;;;5015053;28;20057;-69
2023/03/14 08:21:49;;;;;;;32.40;3.95;;;;;;;;;;5003885;28;20034;-69
2023/03/14 08:24:15;;;;;;;28.92;4.32;;;;;;;;;;5003187;28;20761;-68
2023/03/14 08:26:40;;;;;;;39.05;5.30;;;;;;;;;;4991044;28;20080;-68
2023/03/14 08:29:05;;;;;;;42.00;6.22;;;;;;;;;;4996638;28;20034;-70
2023/03/14 08:31:30;;;;;;;30.33;4.93;;;;;;;;;;4998616;28;20046;-68
2023/03/14 08:33:58;;;;;;;35.88;4.60;;;;;;;;;;4993870;28;20034;-69
2023/03/14 08:36:23;;;;;;;32.08;6.20;;;;;;;;;;4997434;28;20049;-68
2023/03/14 08:38:50;;;;;;;33.72;4.72;;;;;;;;;;4992078;28;20058;-69
2023/03/14 08:41:15;;;;;;;29.85;5.30;;;;;;;;;;5021435;28;20705;-69
2023/03/14 08:43:40;;;;;;;33.72;5.90;;;;;;;;;;5012454;28;20505;-69
2023/03/14 08:46:06;;;;;;;36.50;4.72;;;;;;;;;;5004436;28;20040;-68
2023/03/14 08:48:31;;;;;;;30.45;4.43;;;;;;;;;;5009806;28;20041;-70
2023/03/14 08:51:03;;;;;;;36.20;5.15;;;;;;;;;;5018413;28;20625;-68
2023/03/14 08:53:31;;;;;;;31.70;4.43;;;;;;;;;;5014299;28;20038;-68
2023/03/14 08:55:57;;;;;;;28.83;5.18;;;;;;;;;;5015006;28;20034;-68
2023/03/14 08:58:23;;;;;;;30.17;4.45;;;;;;;;;;5009561;28;20033;-68
2023/03/14 09:00:48;;;;;;;29.33;4.22;;;;;;;;;;5014304;28;20129;-69
2023/03/14 09:03:14;;;;;;;24.65;3.72;;;;;;;;;;5006372;28;20473;-69
2023/03/14 09:05:40;;;;;;;41.78;4.10;;;;;;;;;;5006611;28;20717;-69
2023/03/14 09:08:07;;;;;;;38.10;4.95;;;;;;;;;;5010210;28;20026;-68
2023/03/14 09:10:33;;;;;;;41.50;5.07;;;;;;;;;;5018043;28;20033;-68
2023/03/14 09:12:58;;;;;;;42.40;5.07;;;;;;;;;;5016011;28;20041;-67
2023/03/14 09:15:24;;;;;;;32.90;4.38;;;;;;;;;;5007033;28;20507;-66
2023/03/14 09:17:49;;;;;;;45.83;6.28;;;;;;;;;;5008693;28;20360;-67
2023/03/14 09:20:14;;;;;;;39.42;5.70;;;;;;;;;;4994285;28;20134;-69
2023/03/14 09:22:39;;;;;;;36.92;5.45;;;;;;;;;;5021764;28;20037;-70
2023/03/14 09:25:05;;;;;;;34.95;5.03;;;;;;;;;;5013170;28;20030;-69
2023/03/14 09:27:31;;;;;;;40.50;5.85;;;;;;;;;;5009613;28;20026;-68
2023/03/14 09:29:56;;;;;;;29.52;4.20;;;;;;;;;;4986019;28;20030;-68
2023/03/14 09:32:21;;;;;;;37.38;5.45;;;;;;;;;;4992494;28;20061;-67
2023/03/14 09:34:47;;;;;;;38.63;6.35;;;;;;;;;;4993335;28;20513;-68
2023/03/14 09:37:12;;;;;;;44.10;5.03;;;;;;;;;;4989110;28;20664;-69
2023/03/14 09:39:37;;;;;;;33.78;5.57;;;;;;;;;;4986057;28;20536;-68
2023/03/14 09:42:05;;;;;;;31.77;4.40;;;;;;;;;;5010164;28;20042;-68
2023/03/14 09:44:31;;;;;;;39.85;5.03;;;;;;;;;;5014940;28;20042;-68
2023/03/14 09:47:00;;;;;;;42.97;6.85;;;;;;;;;;5008602;28;20496;-69
2023/03/14 09:49:33;;;;;;;42.10;5.13;;;;;;;;;;4990752;28;20177;-69
2023/03/14 09:52:00;;;;;;;34.90;4.63;;;;;;;;;;5005533;28;20107;-69
2023/03/14 09:54:55;;;;;;;26.60;4.47;;;;;;;;;;5001154;28;20561;-70
2023/03/14 09:57:23;;;;;;;39.70;4.53;;;;;;;;;;4982844;28;20597;-68
2023/03/14 09:59:49;;;;;;;36.40;5.22;;;;;;;;;;4996613;28;20050;-69
2023/03/14 10:02:19;;;;;;;26.17;4.03;;;;;;;;;;4981755;28;20066;-69
2023/03/14 10:04:45;;;;;;;39.65;5.57;;;;;;;;;;4997533;28;20080;-69
2023/03/14 10:07:19;;;;;;;44.28;6.05;;;;;;;;;;4992803;28;20049;-68
2023/03/14 10:09:47;;;;;;;39.85;5.22;;;;;;;;;;4990398;28;20570;-68
2023/03/14 10:12:13;;;;;;;37.90;4.65;;;;;;;;;;5005147;28;20406;-69
2023/03/14 10:14:44;;;;;;;26.50;4.03;;;;;;;;;;5000258;28;20048;-68
2023/03/14 10:17:11;;;;;;;24.83;3.83;;;;;;;;;;5007319;28;20037;-69
2023/03/14 10:19:37;;;;;;;27.52;4.00;;;;;;;;;;5014031;28;20054;-69
2023/03/14 10:22:04;;;;;;;30.30;4.35;;;;;;;;;;5004855;28;20144;-68
2023/03/14 10:24:31;;;;;;;33.13;4.45;;;;;;;;;;4986677;28;20483;-68
2023/03/14 10:27:02;;;;;;;22.60;3.45;;;;;;;;;;4987879;28;20045;-69
2023/03/14 10:29:29;;;;;;;28.73;4.05;;;;;;;;;;4992459;28;20479;-66
2023/03/14 10:32:00;;;;;;;19.60;3.58;;;;;;;;;;5000163;28;20034;-68
2023/03/14 10:34:36;;;;;;;23.80;3.50;;;;;;;;;;4998975;28;20123;-69
2023/03/14 10:37:08;;;;;;;22.02;3.42;;;;;;;;;;5002893;28;20355;-68
2023/03/14 10:39:34;;;;;;;29.92;5.00;;;;;;;;;;5029976;28;20418;-69
2023/03/14 10:42:04;;;;;;;23.65;3.13;;;;;;;;;;4999089;28;20045;-68
2023/03/14 10:44:30;;;;;;;19.58;3.20;;;;;;;;;;4981337;28;20120;-69
2023/03/14 10:47:00;;;;;;;20.15;2.75;;;;;;;;;;4997191;28;20037;-68
2023/03/14 10:49:29;;;;;;;26.67;3.65;;;;;;;;;;5027012;28;20037;-67
2023/03/14 10:51:57;;;;;;;;;;;;;;;;;;5016200;28;20033;-67
2023/03/14 10:54:26;;;;;;;28.12;4.04;;;;;;;;;;5009443;28;19913;-68
2023/03/14 10:56:58;;;;;;;20.02;2.85;;;;;;;;;;5005329;28;22127;-68
2023/03/14 10:59:23;;;;;;;30.20;3.33;;;;;;;;;;4999549;28;20042;-68
2023/03/14 11:01:55;;;;;;;22.90;2.92;;;;;;;;;;5020716;28;20042;-69
2023/03/14 11:04:39;;;;;;;23.13;4.13;;;;;;;;;;5006173;28;20037;-69
2023/03/14 11:07:09;;;;;;;19.50;4.10;;;;;;;;;;5009450;28;20315;-68
2023/03/14 11:09:58;;;;;;;22.75;3.00;;;;;;;;;;4998338;28;20029;-68
2023/03/14 11:12:32;;;;;;;22.77;3.63;;;;;;;;;;5008230;28;20291;-69
2023/03/14 11:15:01;;;;;;;24.80;3.58;;;;;;;;;;4995459;28;20038;-68
2023/03/14 11:17:29;;;;;;;26.45;4.25;;;;;;;;;;5024278;28;20038;-68
2023/03/14 11:20:17;;;;;;;28.02;3.95;;;;;;;;;;4979743;28;21384;-69
2023/03/14 11:22:54;;;;;;;21.25;3.50;;;;;;;;;;4996635;28;20037;-68
2023/03/14 11:25:52;;;;;;;14.35;2.42;;;;;;;;;;5001062;28;20065;-68
2023/03/14 11:28:32;;;;;;;26.23;3.78;;;;;;;;;;4939512;28;20033;-67
2023/03/14 11:31:03;;;;;;;25.38;4.60;;;;;;;;;;4997573;28;20521;-68
2023/03/14 11:33:36;;;;;;;23.00;3.25;;;;;;;;;;4998268;28;20662;-68
2023/03/14 11:36:09;;;;;;;24.77;3.05;;;;;;;;;;5002553;28;20030;-69
2023/03/14 11:38:34;;;;;;;16.88;3.05;;;;;;;;;;5030302;28;20065;-67
2023/03/14 11:41:00;;;;;;;20.10;3.22;;;;;;;;;;5002754;28;20113;-70
2023/03/14 11:43:30;;;;;;;18.77;2.53;;;;;;;;;;5011642;28;20038;-67
2023/03/14 11:46:03;;;;;;;24.27;3.80;;;;;;;;;;5004065;28;20120;-68
2023/03/14 11:48:42;;;;;;;20.67;3.17;;;;;;;;;;4996725;28;20497;-68
2023/03/14 11:51:11;;;;;;;24.02;3.80;;;;;;;;;;5011476;28;20056;-68
2023/03/14 11:53:43;;;;;;;25.75;4.07;;;;;;;;;;5010420;28;20041;-68
2023/03/14 11:56:16;;;;;;;16.27;2.80;;;;;;;;;;5007434;28;20690;-69
2023/03/14 11:58:45;;;;;;;17.00;2.60;;;;;;;;;;4990564;28;20041;-68
2023/03/14 12:01:11;;;;;;;22.67;2.38;;;;;;;;;;4998233;28;20045;-67
2023/03/14 12:03:54;;;;;;;16.67;2.53;;;;;;;;;;4989412;28;20118;-67
2023/03/14 12:06:35;;;;;;;17.15;2.47;;;;;;;;;;5010005;28;20030;-68
2023/03/14 12:09:03;;;;;;;18.67;2.60;;;;;;;;;;4982295;28;20602;-67
2023/03/14 12:11:33;;;;;;;18.75;3.10;;;;;;;;;;5001204;28;20038;-69
2023/03/14 12:13:59;;;;;;;18.40;3.03;;;;;;;;;;5001551;28;20141;-67
2023/03/14 12:16:38;;;;;;;16.90;3.33;;;;;;;;;;5004914;28;20029;-69
2023/03/14 12:19:24;;;;;;;19.35;3.63;;;;;;;;;;5010962;28;20069;-69
2023/03/14 12:21:51;;;;;;;21.73;3.20;;;;;;;;;;5007718;28;20380;-69
2023/03/14 12:24:22;;;;;;;23.33;3.20;;;;;;;;;;5001579;28;20030;-69
2023/03/14 12:26:57;;;;;;;17.00;3.05;;;;;;;;;;5020010;28;20763;-67
2023/03/14 12:29:23;;;;;;;22.52;2.85;;;;;;;;;;5009543;28;20034;-68
2023/03/14 12:32:05;;;;;;;20.30;3.70;;;;;;;;;;5038619;28;20196;-67
2023/03/14 12:34:34;;;;;;;22.23;2.63;;;;;;;;;;4990211;28;20100;-69
2023/03/14 12:37:08;;;;;;;21.70;2.67;;;;;;;;;;4984533;28;20042;-67
2023/03/14 12:39:34;;;;;;;19.30;3.33;;;;;;;;;;5014504;28;20049;-69
2023/03/14 12:42:05;;;;;;;14.80;2.83;;;;;;;;;;5009613;28;20041;-68
2023/03/14 12:44:30;;;;;;;16.02;2.70;;;;;;;;;;5018774;28;20034;-69
2023/03/14 12:47:18;;;;;;;23.25;3.10;;;;;;;;;;5020501;28;20045;-68
2023/03/14 12:49:44;;;;;;;18.63;2.42;;;;;;;;;;4986462;28;20714;-68
2023/03/14 12:52:14;;;;;;;21.17;3.90;;;;;;;;;;5002478;28;22279;-69
2023/03/14 12:54:48;;;;;;;20.20;2.83;;;;;;;;;;5006461;28;20057;-69
2023/03/14 12:57:13;;;;;;;23.52;3.08;;;;;;;;;;5000440;28;20033;-70
2023/03/14 12:59:46;;;;;;;15.48;2.75;;;;;;;;;;5000797;28;20041;-69
2023/03/14 13:02:21;;;;;;;16.17;2.30;;;;;;;;;;4993079;28;20069;-69
2023/03/14 13:04:48;;;;;;;23.77;2.83;;;;;;;;;;5043809;28;20457;-70
2023/03/14 13:07:33;;;;;;;19.17;2.40;;;;;;;;;;5000908;28;20041;-68
2023/03/14 13:10:07;;;;;;;18.48;3.25;;;;;;;;;;5005351;28;20034;-70
2023/03/14 13:12:48;;;;;;;15.25;2.30;;;;;;;;;;5032186;28;20030;-70
2023/03/14 13:15:32;;;;;;;13.27;2.38;;;;;;;;;;5014374;28;20048;-71
2023/03/14 13:18:10;;;;;;;12.18;2.22;;;;;;;;;;5002279;28;20041;-70
2023/03/14 13:20:37;;;;;;;16.45;2.92;;;;;;;;;;5001579;28;20042;-70
2023/03/14 13:23:02;;;;;;;22.48;3.38;;;;;;;;;;5009020;28;20121;-69
2023/03/14 13:25:35;;;;;;;20.58;3.20;;;;;;;;;;5015530;28;20109;-73
2023/03/14 13:28:03;;;;;;;23.98;3.35;;;;;;;;;;5003495;28;20568;-69
2023/03/14 13:30:42;;;;;;;13.55;2.30;;;;;;;;;;5001818;28;20133;-69
2023/03/14 13:33:20;;;;;;;17.65;3.08;;;;;;;;;;5002573;28;20038;-70
2023/03/14 13:35:54;;;;;;;26.92;3.63;;;;;;;;;;5000574;28;20111;-71
2023/03/14 13:38:21;;;;;;;19.30;3.05;;;;;;;;;;5000171;28;20200;-71
2023/03/14 13:40:50;;;;;;;23.92;3.15;;;;;;;;;;5032570;28;20096;-70
2023/03/14 13:43:17;;;;;;;27.45;4.07;;;;;;;;;;5000002;28;20482;-69
2023/03/14 13:45:44;;;;;;;24.05;3.40;;;;;;;;;;5005492;28;20432;-71
2023/03/14 13:48:14;;;;;;;20.33;3.17;;;;;;;;;;5017822;28;22495;-72
2023/03/14 13:50:48;;;;;;;16.75;2.70;;;;;;;;;;5004532;28;20052;-71
2023/03/14 13:53:14;;;;;;;14.52;2.20;;;;;;;;;;4994154;28;20057;-71
2023/03/14 13:55:42;;;;;;;17.38;2.55;;;;;;;;;;5003510;28;20034;-68
2023/03/14 13:58:26;;;;;;;16.73;3.28;;;;;;;;;;5009507;28;20037;-70
2023/03/14 14:01:12;;;;;;;23.33;3.05;;;;;;;;;;5003444;28;20427;-70
2023/03/14 14:03:39;;;;;;;15.65;2.38;;;;;;;;;;5012604;28;20045;-70
2023/03/14 14:06:07;;;;;;;14.48;2.55;;;;;;;;;;5014036;28;20041;-70
2023/03/14 14:08:33;;;;;;;11.38;2.38;;;;;;;;;;4999637;28;20072;-70
2023/03/14 14:11:00;;;;;;;24.60;3.03;;;;;;;;;;4986566;28;20559;-73
2023/03/14 14:13:27;;;;;;;19.40;3.05;;;;;;;;;;4980169;28;20057;-70
2023/03/14 14:15:54;;;;;;;15.75;2.22;;;;;;;;;;4995016;28;20219;-69
2023/03/14 14:18:20;;;;;;;20.13;3.13;;;;;;;;;;5003647;28;20041;-70
2023/03/14 14:20:47;;;;;;;18.55;3.05;;;;;;;;;;5013101;28;20173;-70
2023/03/14 14:23:19;;;;;;;30.13;3.50;;;;;;;;;;5001999;28;20038;-71
2023/03/14 14:25:49;;;;;;;22.30;3.97;;;;;;;;;;5015768;28;20084;-68
2023/03/14 14:28:26;;;;;;;19.85;3.35;;;;;;;;;;5004257;28;20045;-71
2023/03/14 14:31:04;;;;;;;20.73;3.63;;;;;;;;;;4999201;28;20065;-69
2023/03/14 14:33:37;;;;;;;16.52;3.08;;;;;;;;;;4981407;28;20427;-69
2023/03/14 14:36:02;;;;;;;22.58;3.83;;;;;;;;;;5002881;28;20126;-71